Piarco FIR Weather

TAPA 170100Z 14007KT 9999 FEW018 25/21 Q1017 NOSIG

TBPB 170100Z 10017KT 9999 FEW020 26/22 Q1017 NOSIG

TDPD 170000Z 13007KT 9999 BKN017 26/21 Q1017

TFFF 170130Z AUTO 12009KT 9999 FEW025 25/22 Q1017

TFFR 170130Z AUTO 13008KT 090V170 9999 FEW022 SCT031 25/22 Q1018

TGPY 170100Z 10016KT 9999 FEW018 26/23 Q1015 NOSIG

TKPK 170100Z 07010KT 9999 SCT017 25/22 Q1018

TKPN 170000Z 13007KT 9999 FEW018 BKN050 26/22 Q1017

TLPC 170100Z 11009KT 9999 SCT024 26/22 Q1017 NOSIG

TLPL 170100Z 11020KT 9999 FEW025 27/23 Q1017 NOSIG

TTCP 170100Z 11011KT 9999 FEW016 27/22 Q1016 NOSIG

TTPP 170100Z 12006KT 100V160 9999 FEW016 26/23 Q1016 NOSIG

TVSV 121600Z 08005KT 040V120 9999 SCT020 28/20 Q1017 NOSIG